createdAt,value
2023-05-16T00:01:01.416Z,20.40
2023-05-16T00:03:28.249Z,20.30
2023-05-16T00:05:55.992Z,20.30
2023-05-16T00:08:22.981Z,20.30
2023-05-16T00:10:49.573Z,20.30
2023-05-16T00:13:16.310Z,20.30
2023-05-16T00:15:43.957Z,20.30
2023-05-16T00:18:14.756Z,20.30
2023-05-16T00:20:42.082Z,20.30
2023-05-16T00:23:08.672Z,20.30
2023-05-16T00:25:36.470Z,20.30
2023-05-16T00:28:03.116Z,20.20
2023-05-16T00:30:29.671Z,20.20
2023-05-16T00:32:56.589Z,20.20
2023-05-16T00:35:23.369Z,20.20
2023-05-16T00:37:50.504Z,20.20
2023-05-16T00:40:17.201Z,20.20
2023-05-16T00:42:44.459Z,20.20
2023-05-16T00:45:11.278Z,20.10
2023-05-16T00:47:37.883Z,20.10
2023-05-16T00:50:05.697Z,20.10
2023-05-16T00:52:33.617Z,20.10
2023-05-16T00:55:00.417Z,20.10
2023-05-16T00:57:27.347Z,20.10
2023-05-16T00:59:54.560Z,20.10
2023-05-16T01:02:21.547Z,20.10
2023-05-16T01:04:48.564Z,20.10
2023-05-16T01:07:15.411Z,20.10
2023-05-16T01:09:41.970Z,20.10
2023-05-16T01:12:34.667Z,20.10
2023-05-16T01:15:05.082Z,20.10
2023-05-16T01:17:34.519Z,20.10
2023-05-16T01:20:08.229Z,20.10
2023-05-16T01:22:38.639Z,20.10
2023-05-16T01:25:07.818Z,20.10
2023-05-16T01:27:35.782Z,20.10
2023-05-16T01:30:11.099Z,20.10
2023-05-16T01:32:37.784Z,20.10
2023-05-16T01:35:04.892Z,20.10
2023-05-16T01:37:42.947Z,20.10
2023-05-16T01:40:12.799Z,20.10
2023-05-16T01:42:42.047Z,20.10
2023-05-16T01:45:12.952Z,20.10
2023-05-16T01:47:41.376Z,20.10
2023-05-16T01:50:09.999Z,20.10
2023-05-16T01:52:40.677Z,20.10
2023-05-16T01:55:10.638Z,20.10
2023-05-16T01:57:38.983Z,20.10
2023-05-16T02:00:05.855Z,20.10
2023-05-16T02:02:32.554Z,20.10
2023-05-16T02:04:59.412Z,20.10
2023-05-16T02:07:26.358Z,20.10
2023-05-16T02:09:52.926Z,20.10
2023-05-16T02:12:19.463Z,20.10
2023-05-16T02:14:46.101Z,20.10
2023-05-16T02:17:12.725Z,20.10
2023-05-16T02:19:39.447Z,20.10
2023-05-16T02:22:06.212Z,20.10
2023-05-16T02:24:32.827Z,20.10
2023-05-16T02:26:59.775Z,20.10
2023-05-16T02:29:26.369Z,20.10
2023-05-16T02:31:52.986Z,20.10
2023-05-16T02:34:19.885Z,20.10
2023-05-16T02:36:46.530Z,20.10
2023-05-16T02:39:13.157Z,20.10
2023-05-16T02:41:39.732Z,20.10
2023-05-16T02:44:06.333Z,20.10
2023-05-16T02:46:36.607Z,20.10
2023-05-16T02:49:03.698Z,20.00
2023-05-16T02:51:30.264Z,20.00
2023-05-16T02:53:57.240Z,20.00
2023-05-16T02:56:23.931Z,20.00
2023-05-16T02:58:50.570Z,20.00
2023-05-16T03:01:17.410Z,20.00
2023-05-16T03:03:44.218Z,20.00
2023-05-16T03:06:10.977Z,20.00
2023-05-16T03:08:37.670Z,20.00
2023-05-16T03:11:04.233Z,20.00
2023-05-16T03:13:30.920Z,20.00
2023-05-16T03:15:57.681Z,20.00
2023-05-16T03:18:24.362Z,20.00
2023-05-16T03:20:53.000Z,20.00
2023-05-16T03:23:20.259Z,20.00
2023-05-16T03:25:47.121Z,20.00
2023-05-16T03:28:15.236Z,20.00
2023-05-16T03:30:42.309Z,20.00
2023-05-16T03:33:09.215Z,20.00
2023-05-16T03:35:36.215Z,20.00
2023-05-16T03:38:03.093Z,20.00
2023-05-16T03:40:29.652Z,20.00
2023-05-16T03:42:56.397Z,20.00
2023-05-16T03:45:23.058Z,20.00
2023-05-16T03:47:49.740Z,20.00
2023-05-16T03:50:16.562Z,20.00
2023-05-16T03:52:43.910Z,20.00
2023-05-16T03:55:10.606Z,20.00
2023-05-16T03:57:38.220Z,20.00
2023-05-16T04:00:08.051Z,20.00
2023-05-16T04:02:34.738Z,20.00
2023-05-16T04:05:01.361Z,20.00
2023-05-16T04:07:28.301Z,20.00
2023-05-16T04:09:55.883Z,20.00
2023-05-16T04:12:23.122Z,20.00
2023-05-16T04:14:49.739Z,20.00
2023-05-16T04:17:16.400Z,20.00
2023-05-16T04:19:43.088Z,20.00
2023-05-16T04:22:09.677Z,20.00
2023-05-16T04:24:36.580Z,20.00
2023-05-16T04:27:04.784Z,20.00
2023-05-16T04:29:32.285Z,20.00
2023-05-16T04:31:58.890Z,20.00
2023-05-16T04:34:27.980Z,20.00
2023-05-16T04:36:55.569Z,20.00
2023-05-16T04:39:22.366Z,20.00
2023-05-16T04:41:48.936Z,19.90
2023-05-16T04:44:15.845Z,20.00
2023-05-16T04:46:42.837Z,20.00
2023-05-16T04:49:11.236Z,20.00
2023-05-16T04:51:37.792Z,20.00
2023-05-16T04:54:04.502Z,20.00
2023-05-16T04:56:31.076Z,20.00
2023-05-16T04:58:58.068Z,20.00
2023-05-16T05:01:24.716Z,20.00
2023-05-16T05:03:51.328Z,20.00
2023-05-16T05:06:17.974Z,20.00
2023-05-16T05:08:44.563Z,20.00
2023-05-16T05:11:11.812Z,20.00
2023-05-16T05:13:38.460Z,20.00
2023-05-16T05:16:05.917Z,20.00
2023-05-16T05:18:33.038Z,20.00
2023-05-16T05:20:59.686Z,20.00
2023-05-16T05:23:26.429Z,20.00
2023-05-16T05:25:53.193Z,20.00
2023-05-16T05:28:20.002Z,20.00
2023-05-16T05:30:48.343Z,20.00
2023-05-16T05:33:17.110Z,20.00
2023-05-16T05:35:43.799Z,20.00
2023-05-16T05:38:10.348Z,20.00
2023-05-16T05:40:37.270Z,20.00
2023-05-16T05:43:03.888Z,20.00
2023-05-16T05:45:30.607Z,20.00
2023-05-16T05:47:57.546Z,20.00
2023-05-16T05:50:24.243Z,20.00
2023-05-16T05:52:50.900Z,20.00
2023-05-16T05:55:17.524Z,20.00
2023-05-16T05:57:44.104Z,20.00
2023-05-16T06:00:11.541Z,20.10
2023-05-16T06:02:38.114Z,20.00
2023-05-16T06:05:05.021Z,20.00
2023-05-16T06:07:31.605Z,20.10
2023-05-16T06:09:58.161Z,20.10
2023-05-16T06:12:24.746Z,20.10
2023-05-16T06:14:51.297Z,20.10
2023-05-16T06:17:18.115Z,20.10
2023-05-16T06:19:45.211Z,20.10
2023-05-16T06:22:11.781Z,20.10
2023-05-16T06:24:38.387Z,20.10
2023-05-16T06:27:05.021Z,20.10
2023-05-16T06:29:31.695Z,20.10
2023-05-16T06:31:58.365Z,20.10
2023-05-16T06:34:28.162Z,20.10
2023-05-16T06:36:55.414Z,20.10
2023-05-16T06:39:22.070Z,20.10
2023-05-16T06:41:48.934Z,20.10
2023-05-16T06:44:15.671Z,20.10
2023-05-16T06:46:42.342Z,20.10
2023-05-16T06:49:08.967Z,20.10
2023-05-16T06:51:35.677Z,20.10
2023-05-16T06:54:04.160Z,20.10
2023-05-16T06:56:31.574Z,20.10
2023-05-16T06:58:58.297Z,20.10
2023-05-16T07:01:25.029Z,20.10
2023-05-16T07:03:52.297Z,20.10
2023-05-16T07:06:19.178Z,20.10
2023-05-16T07:08:46.159Z,20.10
2023-05-16T07:11:12.899Z,20.00
2023-05-16T07:13:39.454Z,20.00
2023-05-16T07:16:07.742Z,20.00
2023-05-16T07:18:34.635Z,20.00
2023-05-16T07:21:01.243Z,20.00
2023-05-16T07:23:27.905Z,20.00
2023-05-16T07:25:54.643Z,20.00
2023-05-16T07:28:22.091Z,20.10
2023-05-16T07:30:48.792Z,20.10
2023-05-16T07:33:15.477Z,20.10
2023-05-16T07:35:42.557Z,20.10
2023-05-16T07:38:09.166Z,20.10
2023-05-16T07:40:35.838Z,20.00
2023-05-16T07:43:02.988Z,20.00
2023-05-16T07:45:30.004Z,20.00
2023-05-16T07:47:57.102Z,20.00
2023-05-16T07:50:23.847Z,20.00
2023-05-16T07:52:50.680Z,20.00
2023-05-16T07:55:17.342Z,20.00
2023-05-16T07:57:44.032Z,20.00
2023-05-16T08:00:10.965Z,20.00
2023-05-16T08:02:37.783Z,20.00
2023-05-16T08:05:04.695Z,20.00
2023-05-16T08:07:31.647Z,20.00
2023-05-16T08:09:58.245Z,20.00
2023-05-16T08:12:25.036Z,20.00
2023-05-16T08:14:51.823Z,20.00
2023-05-16T08:17:18.443Z,20.00
2023-05-16T08:19:45.126Z,20.00
2023-05-16T08:22:11.738Z,20.00
2023-05-16T08:24:38.389Z,20.00
2023-05-16T08:27:05.226Z,20.00
2023-05-16T08:29:32.063Z,20.00
2023-05-16T08:31:58.819Z,20.00
2023-05-16T08:34:25.854Z,20.10
2023-05-16T08:36:52.594Z,20.10
2023-05-16T08:39:19.176Z,20.10
2023-05-16T08:41:45.893Z,20.10
2023-05-16T08:44:13.166Z,20.10
2023-05-16T08:46:44.224Z,20.10
2023-05-16T08:49:11.700Z,20.10
2023-05-16T08:51:38.421Z,20.10
2023-05-16T08:54:10.399Z,20.10
2023-05-16T08:56:37.921Z,20.10
2023-05-16T08:59:05.119Z,20.10
2023-05-16T09:01:34.627Z,20.10
2023-05-16T09:04:01.699Z,20.10
2023-05-16T09:06:28.757Z,20.10
2023-05-16T09:08:55.522Z,20.10
2023-05-16T09:11:22.311Z,20.10
2023-05-16T09:13:49.209Z,20.00
2023-05-16T09:16:16.811Z,20.10
2023-05-16T09:18:44.872Z,20.10
2023-05-16T09:21:12.516Z,20.10
2023-05-16T09:23:39.402Z,20.10
2023-05-16T09:26:08.018Z,20.20
2023-05-16T09:28:37.178Z,20.20
2023-05-16T09:31:03.910Z,20.20
2023-05-16T09:33:30.711Z,20.20
2023-05-16T09:35:58.266Z,20.20
2023-05-16T09:38:26.468Z,20.20
2023-05-16T09:40:53.626Z,20.20
2023-05-16T09:43:22.986Z,20.20
2023-05-16T09:45:49.664Z,20.20
2023-05-16T09:48:18.935Z,20.20
2023-05-16T09:50:52.461Z,20.20
2023-05-16T09:53:26.621Z,20.20
2023-05-16T09:56:06.916Z,20.30
2023-05-16T09:58:37.684Z,20.30
2023-05-16T10:01:06.410Z,20.30
2023-05-16T10:03:34.695Z,20.30
2023-05-16T10:06:01.701Z,20.30
2023-05-16T10:08:28.426Z,20.30
2023-05-16T10:10:55.788Z,20.30
2023-05-16T10:13:29.040Z,20.20
2023-05-16T10:15:56.456Z,20.20
2023-05-16T10:18:24.513Z,20.20
2023-05-16T10:20:53.710Z,20.20
2023-05-16T10:23:21.197Z,20.10
2023-05-16T10:25:49.028Z,20.10
2023-05-16T10:28:16.419Z,20.10
2023-05-16T10:30:44.358Z,20.10
2023-05-16T10:33:12.793Z,20.10
2023-05-16T10:35:39.817Z,20.10
2023-05-16T10:38:08.266Z,20.10
2023-05-16T10:40:35.811Z,20.20
2023-05-16T10:43:03.924Z,20.20
2023-05-16T10:45:31.279Z,20.20
2023-05-16T10:47:59.154Z,20.20
2023-05-16T10:50:32.327Z,20.30
2023-05-16T10:53:11.569Z,20.30
2023-05-16T10:55:44.922Z,20.30
2023-05-16T10:58:11.709Z,20.30
2023-05-16T11:00:39.446Z,20.30
2023-05-16T11:03:06.553Z,20.30
2023-05-16T11:05:33.515Z,20.30
2023-05-16T11:08:05.148Z,20.30
2023-05-16T11:10:32.293Z,20.30
2023-05-16T11:13:08.206Z,20.30
2023-05-16T11:15:34.872Z,20.30
2023-05-16T11:18:06.569Z,20.30
2023-05-16T11:20:35.348Z,20.30
2023-05-16T11:23:17.074Z,20.30
2023-05-16T11:25:47.139Z,20.30
2023-05-16T11:28:14.501Z,20.30
2023-05-16T11:30:44.698Z,20.30
2023-05-16T11:33:13.001Z,20.30
2023-05-16T11:35:39.779Z,20.30
2023-05-16T11:38:06.368Z,20.30
2023-05-16T11:40:33.082Z,20.30
2023-05-16T11:43:00.418Z,20.30
2023-05-16T11:45:27.450Z,20.30
2023-05-16T11:47:54.466Z,20.30
2023-05-16T11:50:23.501Z,20.30
2023-05-16T11:52:57.345Z,20.30
2023-05-16T11:55:40.278Z,20.30
2023-05-16T11:58:08.382Z,20.30
2023-05-16T12:00:35.166Z,20.30
2023-05-16T12:03:06.186Z,20.30
2023-05-16T12:05:34.700Z,20.30
2023-05-16T12:08:02.803Z,20.30
2023-05-16T12:10:31.160Z,20.30
2023-05-16T12:12:57.852Z,20.30
2023-05-16T12:15:24.503Z,20.30
2023-05-16T12:17:52.626Z,20.30
2023-05-16T12:20:19.422Z,20.40
2023-05-16T12:22:46.581Z,20.40
2023-05-16T12:25:26.743Z,20.40
2023-05-16T12:27:54.886Z,20.40
2023-05-16T12:30:22.337Z,20.40
2023-05-16T12:33:11.014Z,20.40
2023-05-16T12:35:38.702Z,20.40
2023-05-16T12:38:05.989Z,20.40
2023-05-16T12:40:32.727Z,20.50
2023-05-16T12:42:59.472Z,20.50
2023-05-16T12:45:29.051Z,20.50
2023-05-16T12:47:55.929Z,20.50
2023-05-16T12:50:23.004Z,20.50
2023-05-16T12:52:54.008Z,20.50
2023-05-16T12:55:21.805Z,20.50
2023-05-16T12:57:49.109Z,20.50
2023-05-16T13:00:18.736Z,20.40
2023-05-16T13:02:46.336Z,20.40
2023-05-16T13:05:13.286Z,20.40
2023-05-16T13:07:43.186Z,20.30
2023-05-16T13:10:10.861Z,20.40
2023-05-16T13:12:38.365Z,20.40
2023-05-16T13:15:07.398Z,20.40
2023-05-16T13:17:46.254Z,20.40
2023-05-16T13:20:14.939Z,20.40
2023-05-16T13:22:42.519Z,20.50
2023-05-16T13:25:10.508Z,20.40
2023-05-16T13:27:37.162Z,20.50
2023-05-16T13:30:07.385Z,20.50
2023-05-16T13:32:34.191Z,20.50
2023-05-16T13:35:00.930Z,20.50
2023-05-16T13:37:27.597Z,20.50
2023-05-16T13:39:57.081Z,20.50
2023-05-16T13:42:26.600Z,20.50
2023-05-16T13:44:53.230Z,20.50
2023-05-16T13:47:19.920Z,20.60
2023-05-16T13:49:47.454Z,20.60
2023-05-16T13:52:14.760Z,20.60
2023-05-16T13:54:41.511Z,20.60
2023-05-16T13:57:08.208Z,20.60
2023-05-16T14:02:04.560Z,20.60
2023-05-16T14:04:31.172Z,20.60
2023-05-16T14:06:58.165Z,20.60
2023-05-16T14:09:24.840Z,20.60
2023-05-16T14:11:51.732Z,20.70
2023-05-16T14:14:18.349Z,20.70
2023-05-16T14:16:45.678Z,20.70
2023-05-16T14:19:13.360Z,20.70
2023-05-16T14:21:40.493Z,20.80
2023-05-16T14:24:07.423Z,20.70
2023-05-16T14:26:33.976Z,20.80
2023-05-16T14:29:00.756Z,20.80
2023-05-16T14:31:27.469Z,20.80
2023-05-16T14:33:54.096Z,20.80
2023-05-16T14:36:20.789Z,20.80
2023-05-16T14:38:49.091Z,20.80
2023-05-16T14:41:16.302Z,20.90
2023-05-16T14:43:44.452Z,20.90
2023-05-16T14:46:11.535Z,20.90
2023-05-16T14:48:38.144Z,20.90
2023-05-16T14:51:05.198Z,20.90
2023-05-16T14:53:31.896Z,20.90
2023-05-16T14:55:58.690Z,20.90
2023-05-16T14:58:25.303Z,20.90
2023-05-16T15:00:51.990Z,20.90
2023-05-16T15:03:19.058Z,20.90
2023-05-16T15:05:45.937Z,20.90
2023-05-16T15:08:12.570Z,20.90
2023-05-16T15:10:39.369Z,20.90
2023-05-16T15:13:05.988Z,21.00
2023-05-16T15:15:33.229Z,21.00
2023-05-16T15:17:59.993Z,20.90
2023-05-16T15:20:27.030Z,20.90
2023-05-16T15:22:53.751Z,20.90
2023-05-16T15:25:20.718Z,20.90
2023-05-16T15:27:47.581Z,21.00
2023-05-16T15:30:14.802Z,20.90
2023-05-16T15:32:41.581Z,20.90
2023-05-16T15:35:08.442Z,21.00
2023-05-16T15:37:35.155Z,20.90
2023-05-16T15:40:02.022Z,20.90
2023-05-16T15:42:28.634Z,21.00
2023-05-16T15:44:55.470Z,21.00
2023-05-16T15:47:22.148Z,20.90
2023-05-16T15:49:48.783Z,20.90
2023-05-16T15:52:15.523Z,20.90
2023-05-16T15:54:42.137Z,20.90
2023-05-16T15:57:08.784Z,20.90
2023-05-16T15:59:35.448Z,20.90
2023-05-16T16:02:05.347Z,20.80
2023-05-16T16:04:32.074Z,20.80
2023-05-16T16:06:59.058Z,20.80
2023-05-16T16:09:25.702Z,20.80
2023-05-16T16:11:56.219Z,20.80
2023-05-16T16:14:24.046Z,20.80
2023-05-16T16:16:51.035Z,20.80
2023-05-16T16:19:17.983Z,20.70
2023-05-16T16:21:44.779Z,20.70
2023-05-16T16:24:11.722Z,20.70
2023-05-16T16:26:38.425Z,20.70
2023-05-16T16:29:06.521Z,20.70
2023-05-16T16:31:33.510Z,20.70
2023-05-16T16:34:00.402Z,20.70
2023-05-16T16:36:27.067Z,20.70
2023-05-16T16:38:53.687Z,20.70
2023-05-16T16:41:20.742Z,20.70
2023-05-16T16:43:47.415Z,20.70
2023-05-16T16:46:14.061Z,20.80
2023-05-16T16:48:40.749Z,20.80
2023-05-16T16:51:07.430Z,20.80
2023-05-16T16:53:35.243Z,20.80
2023-05-16T16:56:01.951Z,20.80
2023-05-16T16:58:28.654Z,20.80
2023-05-16T17:00:55.393Z,20.80
2023-05-16T17:03:22.252Z,20.90
2023-05-16T17:05:49.053Z,20.90
2023-05-16T17:08:15.684Z,20.90
2023-05-16T17:10:42.366Z,20.90
2023-05-16T17:13:10.509Z,20.80
2023-05-16T17:15:37.655Z,20.90
2023-05-16T17:18:07.232Z,20.90
2023-05-16T17:20:34.482Z,20.90
2023-05-16T17:23:01.616Z,20.90
2023-05-16T17:25:29.216Z,20.90
2023-05-16T17:27:56.318Z,20.80
2023-05-16T17:30:23.475Z,20.80
2023-05-16T17:32:50.230Z,20.80
2023-05-16T17:35:17.136Z,20.90
2023-05-16T17:37:43.733Z,20.80
2023-05-16T17:40:16.251Z,20.90
2023-05-16T17:42:43.571Z,20.90
2023-05-16T17:45:11.223Z,20.90
2023-05-16T17:47:37.916Z,20.90
2023-05-16T17:50:05.577Z,20.90
2023-05-16T17:52:33.950Z,20.90
2023-05-16T17:55:00.780Z,20.90
2023-05-16T17:57:27.958Z,20.90
2023-05-16T17:59:54.583Z,20.90
2023-05-16T18:02:21.198Z,20.90
2023-05-16T18:04:48.280Z,20.90
2023-05-16T18:07:14.901Z,20.90
2023-05-16T18:09:41.621Z,20.90
2023-05-16T18:12:09.361Z,20.90
2023-05-16T18:14:35.919Z,20.90
2023-05-16T18:17:02.502Z,20.90
2023-05-16T18:19:30.476Z,20.90
2023-05-16T18:21:58.422Z,20.90
2023-05-16T18:24:25.037Z,20.90
2023-05-16T18:26:51.845Z,20.90
2023-05-16T18:29:18.486Z,20.90
2023-05-16T18:31:45.116Z,20.90
2023-05-16T18:34:12.053Z,20.90
2023-05-16T18:36:38.657Z,20.90
2023-05-16T18:39:05.886Z,20.90
2023-05-16T18:41:32.521Z,20.90
2023-05-16T18:43:59.985Z,20.90
2023-05-16T18:46:26.591Z,20.90
2023-05-16T18:48:57.553Z,20.90
2023-05-16T18:51:24.698Z,20.90
2023-05-16T18:53:51.374Z,20.90
2023-05-16T18:56:18.075Z,20.90
2023-05-16T18:58:44.713Z,20.90
2023-05-16T19:01:11.338Z,20.90
2023-05-16T19:03:38.204Z,20.90
2023-05-16T19:06:04.922Z,20.90
2023-05-16T19:08:46.538Z,20.90
2023-05-16T19:11:14.037Z,20.90
2023-05-16T19:13:40.675Z,20.90
2023-05-16T19:16:07.294Z,20.90
2023-05-16T19:18:35.490Z,20.90
2023-05-16T19:21:02.575Z,20.90
2023-05-16T19:23:29.333Z,20.90
2023-05-16T19:25:56.323Z,20.90
2023-05-16T19:28:24.482Z,20.90
2023-05-16T19:30:51.363Z,20.90
2023-05-16T19:33:18.090Z,20.90
2023-05-16T19:35:44.662Z,20.90
2023-05-16T19:38:11.313Z,20.90
2023-05-16T19:40:37.990Z,20.90
2023-05-16T19:43:04.582Z,20.90
2023-05-16T19:45:31.341Z,20.90
2023-05-16T19:47:58.204Z,20.90
2023-05-16T19:50:24.909Z,20.90
2023-05-16T19:52:51.578Z,20.90
2023-05-16T19:55:18.284Z,20.90
2023-05-16T19:57:44.880Z,20.90
2023-05-16T20:00:11.905Z,20.90
2023-05-16T20:02:38.652Z,20.90
2023-05-16T20:05:05.620Z,20.90
2023-05-16T20:07:32.300Z,20.90
2023-05-16T20:09:59.064Z,20.90
2023-05-16T20:12:25.831Z,20.90
2023-05-16T20:14:52.584Z,20.90
2023-05-16T20:17:19.292Z,20.80
2023-05-16T20:19:46.641Z,20.90
2023-05-16T20:22:13.382Z,20.80
2023-05-16T20:24:40.116Z,20.80
2023-05-16T20:27:06.753Z,20.80
2023-05-16T20:29:34.087Z,20.80
2023-05-16T20:32:00.920Z,20.80
2023-05-16T20:34:28.000Z,20.80
2023-05-16T20:36:54.669Z,20.80
2023-05-16T20:39:21.363Z,20.80
2023-05-16T20:41:48.136Z,20.80
2023-05-16T20:44:15.539Z,20.80
2023-05-16T20:46:43.179Z,20.80
2023-05-16T20:49:09.914Z,20.80
2023-05-16T20:51:36.687Z,20.80
2023-05-16T20:54:03.438Z,20.80
2023-05-16T20:56:30.025Z,20.80
2023-05-16T20:58:57.150Z,20.80
2023-05-16T21:01:23.763Z,20.80
2023-05-16T21:03:50.474Z,20.80
2023-05-16T21:06:17.229Z,20.80
2023-05-16T21:08:44.037Z,20.80
2023-05-16T21:11:10.648Z,20.80
2023-05-16T21:13:37.371Z,20.80
2023-05-16T21:16:04.096Z,20.80
2023-05-16T21:18:30.826Z,20.70
2023-05-16T21:20:57.543Z,20.70
2023-05-16T21:23:24.140Z,20.70
2023-05-16T21:25:50.719Z,20.70
2023-05-16T21:28:17.400Z,20.70
2023-05-16T21:30:44.017Z,20.70
2023-05-16T21:33:10.774Z,20.70
2023-05-16T21:35:37.404Z,20.70
2023-05-16T21:38:04.158Z,20.70
2023-05-16T21:40:30.767Z,20.70
2023-05-16T21:42:57.436Z,20.70
2023-05-16T21:45:24.121Z,20.70
2023-05-16T21:47:53.237Z,20.70
2023-05-16T21:50:19.977Z,20.70
2023-05-16T21:52:46.744Z,20.70
2023-05-16T21:55:13.687Z,20.70
2023-05-16T21:57:40.453Z,20.70
2023-05-16T22:00:09.652Z,20.70
2023-05-16T22:02:36.822Z,20.60
2023-05-16T22:05:04.174Z,20.60
2023-05-16T22:07:31.731Z,20.60
2023-05-16T22:09:58.833Z,20.60
2023-05-16T22:12:26.523Z,20.60
2023-05-16T22:14:53.215Z,20.60
2023-05-16T22:17:20.421Z,20.60
2023-05-16T22:19:47.083Z,20.60
2023-05-16T22:22:13.792Z,20.60
2023-05-16T22:24:40.515Z,20.60
2023-05-16T22:27:07.200Z,20.70
2023-05-16T22:29:38.142Z,20.70
2023-05-16T22:32:05.071Z,20.80
2023-05-16T22:34:31.678Z,20.80
2023-05-16T22:36:58.256Z,20.80
2023-05-16T22:39:26.636Z,20.70
2023-05-16T22:41:53.245Z,20.70
2023-05-16T22:44:19.832Z,20.70
2023-05-16T22:46:46.513Z,20.70
2023-05-16T22:49:13.434Z,20.70
2023-05-16T22:51:40.215Z,20.70
2023-05-16T22:54:06.881Z,20.70
2023-05-16T22:56:33.592Z,20.70
2023-05-16T22:59:00.509Z,20.70
2023-05-16T23:01:27.162Z,20.70
2023-05-16T23:03:53.917Z,20.70
2023-05-16T23:06:20.569Z,20.70
2023-05-16T23:08:47.170Z,20.70
2023-05-16T23:11:14.104Z,20.70
2023-05-16T23:13:40.674Z,20.70
2023-05-16T23:16:07.487Z,20.70
2023-05-16T23:18:34.400Z,20.70
2023-05-16T23:21:01.104Z,20.60
2023-05-16T23:23:27.723Z,20.60
2023-05-16T23:25:54.360Z,20.70
2023-05-16T23:28:21.823Z,20.60
2023-05-16T23:30:48.569Z,20.60
2023-05-16T23:33:15.450Z,20.60
2023-05-16T23:35:42.097Z,20.60
2023-05-16T23:38:08.714Z,20.60
2023-05-16T23:40:35.432Z,20.60
2023-05-16T23:43:02.032Z,20.60
2023-05-16T23:45:30.294Z,20.60
2023-05-16T23:47:57.123Z,20.60
2023-05-16T23:50:23.864Z,20.60
2023-05-16T23:52:50.665Z,20.60
2023-05-16T23:55:17.335Z,20.60
2023-05-16T23:57:43.913Z,20.60
